Weather observations for the past three days for
Augusta, Augusta State Airport
Metric (Imperial)
Date Time (edt) Wind (kph) Vis. (km) Weather Sky Cond. Temperature (ºC) Relative Humidity Wind Chill (°C) Heat Index (°C) Pressure Precipitation (cm)
Air Dwpt 6 hour altimeter (cm) sea level (mb) 1 hr 3 hr 6 hr
Max. Min.
06 12:53 S 19 G 30 16.09 A Few Clouds FEW017 15.6 11.1 75% 75.59 1007.9
06 11:53 S 13 G 35 16.09 Fair CLR 15.6 11.1 75% 75.67 1008.9
06 10:53 S 19 G 30 16.09 Fair CLR 15.6 11.1 75% 75.64 1008.4
06 09:53 SE 9 16.09 Fair CLR 14.4 10.6 78% 75.69 1009.1
06 08:53 S 7 16.09 Fair CLR 13.3 10 81% 75.69 1009.1
06 07:53 SE 15 14.48 Fair CLR 12.2 9.4 12.2 11.1 83% 75.72 1009.6
06 06:53 SE 13 12.87 Mostly Cloudy BKN110 11.7 8.9 83% 75.72 1009.5
06 05:53 S 11 12.87 Mostly Cloudy BKN110 11.1 8.3 83% 75.74 1009.9
06 04:53 E 9 16.09 Mostly Cloudy FEW065 FEW075 BKN110 11.7 8.3 80% 75.72 1009.4
06 03:53 NW 9 16.09 Partly Cloudy SCT120 11.7 8.3 80% 75.72 1009.4
06 02:53 S 6 16.09 Fair CLR 11.7 8.3 80% 75.62 1008.1
06 01:53 S 13 16.09 Fair CLR 11.7 8.3 18.3 11.7 80% 75.59 1007.8
06 00:53 S 9 16.09 Fair CLR 12.2 8.3 77% 75.64 1008.2
05 23:53 S 13 16.09 Fair CLR 13.3 8.3 72% 75.59 1007.7
05 22:53 S 13 16.09 Overcast SCT070 OVC110 14.4 9.4 72% 75.59 1007.8
05 21:53 S 9 16.09 Overcast OVC075 14.4 10 75% 75.62 1008.0
05 20:53 S 15 16.09 A Few Clouds FEW090 FEW110 15 10 72% 75.54 1007.1
05 19:53 Calm 16.09 Light Rain FEW050 OVC095 18.3 11.1 22.8 17.8 63% 75.51 1006.7
05 18:53 W 20 G 41 16.09 Partly Cloudy SCT110 18.3 8.9 54% 75.46 1006.0
05 17:53 S 30 G 52 16.09 Fair CLR 20 9.4 51% 75.29 1003.5
05 16:53 S 17 G 46 16.09 Fair CLR 20.6 10 51% 75.29 1003.6
05 15:53 S 22 G 48 16.09 Fair CLR 21.7 10 47% 75.31 1004.0
05 14:53 S 30 G 59 16.09 Fair CLR 22.8 10 44% 75.36 1004.7
05 13:53 S 22 G 44 16.09 Fair CLR 22.2 10 22.2 13.3 46% 75.39 1005.2
05 12:53 S 15 G 28 16.09 Fair CLR 21.7 10 47% 75.46 1006.2
05 11:53 S 22 G 37 16.09 Fair CLR 18.3 8.9 54% 75.51 1006.9
05 10:53 Vrbl 11 16.09 A Few Clouds FEW120 18.9 8.9 52% 75.54 1007.2
05 09:53 S 13 G 26 16.09 Fair CLR 17.8 7.8 52% 75.57 1007.5
05 08:53 S 17 G 30 16.09 Mostly Cloudy BKN110 15 6.7 58% 75.59 1007.7
05 07:53 Vrbl 11 G 28 16.09 Fair CLR 13.3 6.7 13.3 8.3 65% 75.62 1008.0
05 06:53 S 13 16.09 Fair CLR 10 5.6 74% 8 75.62 1008.0
05 05:53 S 7 16.09 Fair CLR 8.3 5.6 83% 7 75.59 1007.8
05 04:53 S 9 16.09 Fair CLR 8.9 5 77% 8 75.62 1008.0
05 03:53 S 9 16.09 Fair CLR 9.4 4.4 71% 8 75.62 1008.0
05 02:53 S 9 16.09 Fair CLR 10.6 4.4 66% 75.62 1008.1
05 01:53 SW 9 16.09 Fair CLR 11.1 4.4 15.6 9.4 64% 75.59 1008.0
05 00:53 SW 15 G 28 16.09 Fair CLR 11.1 5 66% 75.59 1007.8
04 23:53 S 7 16.09 Fair CLR 9.4 5 74% 9 75.57 1007.5
04 22:53 S 9 16.09 A Few Clouds FEW110 10.6 5 69% 75.54 1007.3
04 21:53 S 13 16.09 Fair CLR 12.2 5 62% 75.54 1007.3
04 20:53 S 11 16.09 Partly Cloudy SCT095 13.9 5.6 58% 75.51 1006.9
04 19:53 SE 7 16.09 Fair CLR 15.6 4.4 18.3 12.2 48% 75.44 1005.9
04 18:53 W 6 16.09 Fair CLR 17.8 4.4 41% 75.41 1005.4
04 17:53 W 9 16.09 Mostly Cloudy BKN090 18.3 4.4 40% 75.41 1005.5
04 16:53 W 17 G 33 16.09 A Few Clouds FEW065 18.3 4.4 40% 75.39 1005.2
04 15:53 W 22 G 43 16.09 Partly Cloudy SCT060 SCT070 17.8 4.4 41% 75.39 1005.3
04 14:53 W 17 G 43 16.09 Mostly Cloudy BKN070 15.6 6.7 56% 75.44 1005.8
04 13:53 W 15 16.09 Mostly Cloudy SCT055 BKN075 BKN090 12.2 7.8 16.1 7.8 75% 75.46 1006.2 0.03 0.03
04 12:53 W 17 G 35 16.09 Light Rain BKN055 OVC070 14.4 3.9 50% 75.41 1005.6
04 11:53 SW 22 G 35 16.09 Fair CLR 15 3.9 48% 75.39 1005.2
04 10:53 S 17 G 35 16.09 Partly Cloudy SCT110 13.9 3.9 51% 75.46 1006.2
04 09:53 S 13 16.09 Partly Cloudy SCT070 11.7 2.2 52% 75.54 1007.2
04 08:53 Vrbl 9 16.09 Overcast FEW050 OVC070 9.4 0 52% 8 75.59 1007.9
04 07:53 Calm 16.09 Fair CLR 7.8 -1.1 7.8 3.3 54% 75.59 1007.9
04 06:53 SW 7 16.09 Overcast BKN075 OVC095 5.6 -2.2 58% 4 75.59 1008.0
04 05:53 W 11 16.09 Fair CLR 3.9 -2.8 62% 1 75.59 1008.0
04 04:53 W 15 16.09 Fair CLR 4.4 -2.8 60% 1 75.57 1007.5
04 03:53 SW 11 16.09 Fair CLR 3.9 -2.2 65% 1 75.57 1007.6
04 02:53 SW 9 16.09 Fair CLR 3.3 -1.7 70% 1 75.57 1007.5
04 01:53 W 6 16.09 Fair CLR 3.9 -2.2 8.3 3.3 65% 75.54 1007.4
04 00:53 W 6 16.09 Fair CLR 5 -2.2 60% 75.54 1007.2
03 23:53 W 7 16.09 Fair CLR 5.6 -2.2 58% 4 75.51 1007.2
03 22:53 W 11 16.09 Fair CLR 5.6 -2.8 55% 3 75.51 1006.9
03 21:53 W 13 16.09 Fair CLR 6.7 -3.3 49% 4 75.49 1006.6
03 20:53 NW 17 16.09 A Few Clouds FEW070 7.8 -3.9 44% 5 75.44 1006.0
03 19:53 NW 19 G 35 16.09 Mostly Cloudy BKN070 8.3 -3.9 10.6 7.2 42% 6 75.36 1005.1
03 18:53 NW 17 G 48 16.09 Overcast OVC075 9.4 -3.9 39% 7 75.31 1004.1
03 17:53 NW 19 G 43 16.09 Overcast OVC075 10 -2.8 41% 8 75.23 1003.2
03 16:53 NW 17 16.09 Overcast OVC070 10.6 0.6 50% 75.23 1003.1
03 15:53 N 17 16.09 Overcast OVC055 10 2.8 61% 8 75.26 1003.7
03 14:53 N 11 16.09 Overcast OVC070 8.3 3.9 74% 7 75.31 1004.2
03 13:53 N 24 G 35 16.09 Overcast FEW017 SCT022 OVC060 7.8 4.4 7.8 5 79% 5 75.34 1004.6 0.03 0.43
Date Time (edt) Wind (kph) Vis. (km) Weather Sky Cond. Air Dwpt Max. Min. Relative Humidity Wind Chill (°C) Heat Index (°C) altimeter (cm) sea level (mb) 1 hr 3 hr 6 hr
6 hour
Temperature (ºC) Pressure Precipitation (cm)